Time;durP1;ratioP1;P1;durP2;ratioP2;P2;SDS_P1;SDS_P2;PMS_P1;PMS_P2;Temp;Humidity;BMP_temperature;BMP_pressure;BME280_temperature;BME280_humidity;BME280_pressure;Samples;Min_cycle;Max_cycle;Signal;HPM_P1;HPM_P2
2020/12/20 00:01:55;;;;;;;11.67;7.00;;;5.20;99.90;;;;;;5094615;28;20182;-77
2020/12/20 00:04:20;;;;;;;13.47;8.30;;;5.10;99.90;;;;;;5094328;28;20191;-77
2020/12/20 00:06:46;;;;;;;16.00;7.83;;;5.20;99.90;;;;;;5076072;28;20210;-79
2020/12/20 00:09:17;;;;;;;13.97;9.53;;;5.20;99.90;;;;;;5097079;28;20179;-78
2020/12/20 00:11:50;;;;;;;15.68;8.57;;;5.10;99.90;;;;;;5077324;28;20380;-77
2020/12/20 00:14:34;;;;;;;17.48;9.15;;;5.10;99.90;;;;;;5054080;28;20195;-78
2020/12/20 00:17:05;;;;;;;15.32;8.55;;;5.10;99.90;;;;;;5097802;28;20287;-80
2020/12/20 00:19:32;;;;;;;12.32;7.70;;;5.10;99.90;;;;;;5065984;28;20172;-79
2020/12/20 00:22:10;;;;;;;17.15;8.85;;;5.10;99.90;;;;;;5071161;28;20336;-79
2020/12/20 00:24:36;;;;;;;15.07;7.95;;;5.10;99.90;;;;;;5086805;28;20215;-80
2020/12/20 00:27:04;;;;;;;12.40;7.55;;;5.00;99.90;;;;;;5086868;28;20226;-80
2020/12/20 00:29:34;;;;;;;15.65;8.05;;;5.00;99.90;;;;;;5105429;28;20167;-80
2020/12/20 00:32:01;;;;;;;15.20;7.97;;;5.00;99.90;;;;;;5089146;28;20175;-80
2020/12/20 00:34:26;;;;;;;15.57;7.72;;;5.00;99.90;;;;;;5071238;28;20198;-78
2020/12/20 00:36:52;;;;;;;13.50;8.60;;;4.90;99.90;;;;;;5070540;28;20175;-79
2020/12/20 00:39:20;;;;;;;15.10;8.10;;;4.90;99.90;;;;;;5088408;28;20176;-79
2020/12/20 00:41:51;;;;;;;11.77;7.43;;;4.90;99.90;;;;;;5070994;28;20590;-78
2020/12/20 00:44:17;;;;;;;17.48;7.75;;;4.80;99.90;;;;;;5072306;28;20210;-79
2020/12/20 00:46:43;;;;;;;12.00;7.50;;;4.90;99.90;;;;;;5088303;28;20202;-77
2020/12/20 00:49:09;;;;;;;14.23;7.20;;;4.90;99.90;;;;;;5070461;28;20171;-79
2020/12/20 00:51:34;;;;;;;11.80;6.80;;;4.90;99.90;;;;;;5070465;28;20661;-79
2020/12/20 00:54:00;;;;;;;13.23;8.13;;;4.80;99.90;;;;;;5095349;28;20183;-77
2020/12/20 00:56:29;;;;;;;12.23;6.43;;;4.80;99.90;;;;;;5093090;28;20187;-78
2020/12/20 00:58:55;;;;;;;16.90;8.00;;;4.80;99.90;;;;;;5074670;28;20175;-78
2020/12/20 01:01:24;;;;;;;17.40;8.77;;;4.80;99.90;;;;;;5092941;28;20175;-78
2020/12/20 01:03:50;;;;;;;15.48;8.32;;;4.80;99.90;;;;;;5094612;28;20199;-78
2020/12/20 01:06:20;;;;;;;13.60;8.20;;;4.80;99.90;;;;;;5092749;28;20203;-78
2020/12/20 01:08:47;;;;;;;14.15;8.15;;;4.70;99.90;;;;;;5075844;28;20405;-79
2020/12/20 01:11:14;;;;;;;14.25;7.97;;;4.70;99.90;;;;;;5094874;28;20187;-80
2020/12/20 01:13:44;;;;;;;14.68;7.65;;;4.70;99.90;;;;;;5094233;28;20653;-79
2020/12/20 01:16:17;;;;;;;13.90;8.27;;;4.70;99.90;;;;;;5094131;28;20254;-78
2020/12/20 01:18:44;;;;;;;14.40;8.43;;;4.70;99.90;;;;;;5094799;28;20167;-79
2020/12/20 01:21:09;;;;;;;14.95;7.78;;;4.80;99.90;;;;;;5094218;28;20175;-78
2020/12/20 01:23:35;;;;;;;10.50;7.20;;;4.70;99.90;;;;;;5094338;28;20277;-79
2020/12/20 01:26:01;;;;;;;13.33;7.77;;;4.80;99.90;;;;;;5094037;28;20206;-79
2020/12/20 01:28:27;;;;;;;17.23;8.20;;;4.80;99.90;;;;;;5093970;28;20526;-78
2020/12/20 01:30:54;;;;;;;15.82;8.27;;;4.70;99.90;;;;;;5094595;28;20195;-77
2020/12/20 01:33:20;;;;;;;17.08;9.27;;;4.70;99.90;;;;;;5092168;28;20258;-78
2020/12/20 01:35:46;;;;;;;15.13;9.30;;;4.70;99.90;;;;;;5092456;28;20167;-78
2020/12/20 01:38:12;;;;;;;15.50;8.07;;;4.80;99.90;;;;;;5093378;28;20404;-78
2020/12/20 01:40:38;;;;;;;17.17;8.27;;;4.80;99.90;;;;;;5093018;28;20641;-78
2020/12/20 01:43:03;;;;;;;12.20;7.03;;;4.80;99.90;;;;;;5073592;28;20541;-76
2020/12/20 01:45:29;;;;;;;15.60;8.40;;;4.70;99.90;;;;;;5091901;28;20526;-76
2020/12/20 01:47:55;;;;;;;15.50;8.20;;;4.70;99.90;;;;;;5091916;28;20172;-78
2020/12/20 01:50:21;;;;;;;18.13;8.27;;;4.70;99.90;;;;;;5091913;28;20172;-77
2020/12/20 01:52:46;;;;;;;14.05;7.15;;;4.70;99.90;;;;;;5091634;28;20229;-77
2020/12/20 01:55:13;;;;;;;14.93;8.57;;;4.70;99.90;;;;;;5091804;28;20194;-77
2020/12/20 01:57:40;;;;;;;17.65;7.63;;;4.70;99.90;;;;;;5091859;28;20405;-77
2020/12/20 02:00:06;;;;;;;21.13;10.00;;;4.70;99.90;;;;;;5093403;28;20182;-78
2020/12/20 02:02:31;;;;;;;12.32;7.80;;;4.70;99.90;;;;;;5097845;28;20167;-80
2020/12/20 02:04:58;;;;;;;11.57;6.73;;;4.70;99.90;;;;;;5075389;28;20328;-78
2020/12/20 02:07:24;;;;;;;12.27;7.90;;;4.70;99.90;;;;;;5082492;28;20626;-78
2020/12/20 02:09:49;;;;;;;15.13;8.00;;;4.70;99.90;;;;;;5075138;28;20174;-78
2020/12/20 02:12:15;;;;;;;14.57;8.43;;;4.70;99.90;;;;;;5075357;28;20175;-78
2020/12/20 02:14:41;;;;;;;14.73;9.27;;;4.60;99.90;;;;;;5094436;28;20738;-78
2020/12/20 02:17:07;;;;;;;17.70;8.40;;;4.60;99.90;;;;;;5092061;28;20163;-77
2020/12/20 02:19:33;;;;;;;15.97;7.57;;;4.70;99.90;;;;;;5075505;28;20237;-78
2020/12/20 02:21:59;;;;;;;16.38;8.25;;;4.60;99.90;;;;;;5093063;28;20650;-77
2020/12/20 02:24:24;;;;;;;15.07;8.13;;;4.60;99.90;;;;;;5098707;28;20209;-78
2020/12/20 02:26:50;;;;;;;17.53;8.50;;;4.70;99.90;;;;;;5095845;28;20982;-78
2020/12/20 02:29:16;;;;;;;17.10;9.33;;;4.60;99.90;;;;;;5095815;28;20182;-78
2020/12/20 02:31:41;;;;;;;16.97;9.83;;;4.60;99.90;;;;;;5100133;28;20409;-77
2020/12/20 02:34:09;;;;;;;15.40;8.10;;;4.60;99.90;;;;;;5088566;28;20195;-79
2020/12/20 02:36:36;;;;;;;20.10;10.57;;;4.60;99.90;;;;;;5071877;28;20209;-79
2020/12/20 02:39:02;;;;;;;17.33;9.30;;;4.60;99.90;;;;;;5088413;28;20178;-79
2020/12/20 02:41:28;;;;;;;16.13;8.20;;;4.60;99.90;;;;;;5105220;28;20220;-78
2020/12/20 02:43:54;;;;;;;15.70;8.13;;;4.60;99.90;;;;;;5061418;28;20196;-78
2020/12/20 02:46:20;;;;;;;15.13;8.70;;;4.60;99.90;;;;;;5096550;28;20442;-78
2020/12/20 02:48:46;;;;;;;23.08;9.82;;;4.60;99.90;;;;;;5072329;28;20179;-78
2020/12/20 02:51:12;;;;;;;15.77;9.10;;;4.60;99.90;;;;;;5097505;28;20179;-77
2020/12/20 02:53:38;;;;;;;15.65;9.07;;;4.70;99.90;;;;;;5096466;28;20484;-77
2020/12/20 02:56:04;;;;;;;16.48;9.02;;;4.70;99.90;;;;;;5095162;28;20168;-78
2020/12/20 02:58:29;;;;;;;22.03;10.83;;;4.70;99.90;;;;;;5095841;28;20595;-77
2020/12/20 03:00:55;;;;;;;21.60;10.10;;;4.70;99.90;;;;;;5094767;28;20183;-77
2020/12/20 03:03:21;;;;;;;16.00;8.77;;;4.70;99.90;;;;;;5100186;28;20191;-77
2020/12/20 03:05:49;;;;;;;16.17;9.10;;;4.60;99.90;;;;;;5089904;28;20210;-78
2020/12/20 03:08:16;;;;;;;14.13;8.63;;;4.60;99.90;;;;;;5095038;28;20170;-77
2020/12/20 03:10:42;;;;;;;12.07;8.40;;;4.60;99.90;;;;;;5077801;28;20262;-76
2020/12/20 03:13:08;;;;;;;18.57;9.77;;;4.60;99.90;;;;;;5080746;28;20199;-77
2020/12/20 03:15:36;;;;;;;18.65;9.95;;;4.60;99.90;;;;;;5097731;28;20626;-77
2020/12/20 03:18:01;;;;;;;12.95;9.25;;;4.70;99.90;;;;;;5098523;28;20254;-77
2020/12/20 03:20:27;;;;;;;16.37;10.23;;;4.60;99.90;;;;;;5081718;28;20198;-77
2020/12/20 03:22:52;;;;;;;18.57;9.37;;;4.60;99.90;;;;;;5079739;28;20175;-79
2020/12/20 03:25:21;;;;;;;15.77;8.37;;;4.60;99.90;;;;;;5099023;28;20210;-78
2020/12/20 03:27:47;;;;;;;17.30;8.73;;;4.50;99.90;;;;;;5080846;28;20167;-77
2020/12/20 03:30:15;;;;;;;19.53;9.20;;;4.50;99.90;;;;;;5063165;28;20734;-77
2020/12/20 03:32:41;;;;;;;17.95;8.45;;;4.50;99.90;;;;;;5096938;28;20167;-78
2020/12/20 03:35:07;;;;;;;16.60;8.03;;;4.60;99.90;;;;;;5077208;28;20218;-77
2020/12/20 03:37:32;;;;;;;19.90;9.07;;;4.50;99.90;;;;;;5077175;28;20313;-78
2020/12/20 03:39:58;;;;;;;20.07;9.33;;;4.50;99.90;;;;;;5043364;28;20194;-77
2020/12/20 03:42:24;;;;;;;15.93;8.67;;;4.60;99.90;;;;;;5095054;28;20167;-78
2020/12/20 03:44:50;;;;;;;17.63;10.00;;;4.60;99.90;;;;;;5079846;28;20203;-77
2020/12/20 03:47:15;;;;;;;20.13;9.10;;;4.50;99.90;;;;;;5096710;28;20441;-79
2020/12/20 03:49:41;;;;;;;17.70;10.70;;;4.60;99.90;;;;;;5096517;28;20164;-79
2020/12/20 03:52:07;;;;;;;16.93;9.17;;;4.60;99.90;;;;;;5078774;28;20401;-79
2020/12/20 03:54:32;;;;;;;15.77;8.60;;;4.60;99.90;;;;;;5103448;28;20244;-78
2020/12/20 03:56:58;;;;;;;13.70;7.93;;;4.60;99.90;;;;;;5065288;28;20175;-78
2020/12/20 03:59:24;;;;;;;17.00;9.30;;;4.60;99.90;;;;;;5050770;28;20228;-78
2020/12/20 04:01:49;;;;;;;15.87;8.90;;;4.60;99.90;;;;;;5066452;28;20175;-79
2020/12/20 04:04:16;;;;;;;14.83;8.43;;;4.70;99.90;;;;;;5066481;28;20284;-78
2020/12/20 04:06:42;;;;;;;16.98;9.93;;;4.70;99.90;;;;;;5083118;28;20294;-78
2020/12/20 04:09:08;;;;;;;15.43;8.88;;;4.70;99.90;;;;;;5095778;28;20198;-77
2020/12/20 04:11:36;;;;;;;13.77;8.68;;;4.70;99.90;;;;;;5100060;28;20175;-78
2020/12/20 04:14:01;;;;;;;18.35;10.80;;;4.80;99.90;;;;;;5097730;28;20254;-77
2020/12/20 04:16:27;;;;;;;17.57;10.23;;;4.80;99.90;;;;;;5101660;28;20187;-78
2020/12/20 04:19:05;;;;;;;16.20;9.23;;;4.80;99.90;;;;;;5076478;28;20175;-78
2020/12/20 04:21:31;;;;;;;20.30;9.23;;;4.80;99.90;;;;;;5093736;28;20172;-79
2020/12/20 04:23:59;;;;;;;16.00;9.07;;;4.80;99.90;;;;;;5080721;28;20202;-77
2020/12/20 04:26:25;;;;;;;15.10;9.20;;;4.80;99.90;;;;;;5059304;28;20207;-78
2020/12/20 04:28:50;;;;;;;18.90;11.10;;;4.80;99.90;;;;;;5077210;28;20171;-78
2020/12/20 04:31:16;;;;;;;17.83;10.60;;;4.80;99.90;;;;;;5087881;28;20399;-78
2020/12/20 04:33:42;;;;;;;16.63;9.03;;;4.80;99.90;;;;;;5101740;28;20187;-79
2020/12/20 04:36:07;;;;;;;21.20;9.83;;;4.80;99.90;;;;;;5095053;28;20210;-78
2020/12/20 04:38:34;;;;;;;14.73;8.77;;;4.80;99.90;;;;;;5095449;28;20182;-78
2020/12/20 04:41:01;;;;;;;16.50;8.63;;;4.80;99.90;;;;;;5093773;28;20638;-78
2020/12/20 04:43:26;;;;;;;17.85;9.68;;;4.90;99.90;;;;;;5101272;28;20197;-79
2020/12/20 04:45:54;;;;;;;20.40;9.90;;;4.80;99.90;;;;;;5101451;28;20270;-78
2020/12/20 04:48:28;;;;;;;18.27;9.07;;;4.80;99.90;;;;;;5092709;28;20160;-77
2020/12/20 04:50:54;;;;;;;20.80;10.93;;;4.70;99.90;;;;;;5094879;28;20253;-78
2020/12/20 04:53:22;;;;;;;21.00;11.00;;;4.70;99.90;;;;;;5095174;28;20762;-79
2020/12/20 04:55:51;;;;;;;23.38;10.20;;;4.70;99.90;;;;;;5062342;28;20175;-79
2020/12/20 04:58:18;;;;;;;19.92;10.40;;;4.60;99.90;;;;;;5063830;28;20179;-78
2020/12/20 05:00:44;;;;;;;17.05;10.38;;;4.60;99.90;;;;;;5095347;28;20174;-78
2020/12/20 05:03:10;;;;;;;17.17;10.48;;;4.60;99.90;;;;;;5093060;28;20165;-78
2020/12/20 05:05:36;;;;;;;13.87;8.73;;;4.50;99.90;;;;;;5081536;28;20724;-79
2020/12/20 05:08:02;;;;;;;18.87;10.60;;;4.60;99.90;;;;;;5063747;28;20178;-76
2020/12/20 05:10:40;;;;;;;19.75;10.98;;;4.50;99.90;;;;;;5097718;28;20254;-78
2020/12/20 05:13:07;;;;;;;16.95;10.52;;;4.50;99.90;;;;;;5059535;28;20183;-77
2020/12/20 05:15:33;;;;;;;18.70;9.80;;;4.50;99.90;;;;;;5099471;28;20191;-77
2020/12/20 05:18:08;;;;;;;15.50;8.95;;;4.50;99.90;;;;;;5081191;28;20206;-79
2020/12/20 05:20:54;;;;;;;18.80;11.20;;;4.40;99.90;;;;;;5080041;28;20171;-79
2020/12/20 05:23:28;;;;;;;15.90;9.27;;;4.50;99.90;;;;;;5099219;28;20206;-78
2020/12/20 05:26:10;;;;;;;16.95;8.77;;;4.50;99.90;;;;;;5099841;28;20572;-79
2020/12/20 05:28:36;;;;;;;21.42;11.02;;;4.40;99.90;;;;;;5068802;28;20222;-79
2020/12/20 05:31:08;;;;;;;19.37;10.40;;;4.40;99.90;;;;;;5054911;28;20175;-79
2020/12/20 05:33:35;;;;;;;19.38;10.18;;;4.40;99.90;;;;;;5087531;28;20215;-78
2020/12/20 05:36:03;;;;;;;21.52;10.63;;;4.50;99.90;;;;;;5087367;28;20210;-79
2020/12/20 05:38:28;;;;;;;16.15;9.00;;;4.50;99.90;;;;;;5087403;28;20168;-79
2020/12/20 05:40:54;;;;;;;18.13;10.27;;;4.40;99.90;;;;;;5105056;28;20180;-79
2020/12/20 05:43:24;;;;;;;14.73;9.27;;;4.40;99.90;;;;;;5086072;28;20203;-80
2020/12/20 05:45:50;;;;;;;18.67;10.15;;;4.40;99.90;;;;;;5103349;28;20195;-78
2020/12/20 05:48:18;;;;;;;15.43;9.55;;;4.40;99.90;;;;;;5068294;28;20183;-78
2020/12/20 05:50:55;;;;;;;17.80;10.45;;;4.40;99.90;;;;;;5067249;28;20243;-77
2020/12/20 05:53:26;;;;;;;17.08;9.23;;;4.40;99.90;;;;;;5069373;28;20543;-78
2020/12/20 05:55:53;;;;;;;20.45;10.35;;;4.40;99.90;;;;;;5050753;28;20171;-78
2020/12/20 05:58:19;;;;;;;20.23;11.25;;;4.40;99.90;;;;;;5102251;28;20437;-78
2020/12/20 06:00:45;;;;;;;17.10;10.93;;;4.40;99.90;;;;;;5104902;28;20595;-79
2020/12/20 06:03:12;;;;;;;20.60;10.80;;;4.50;99.90;;;;;;5070549;28;20832;-79
2020/12/20 06:05:43;;;;;;;19.45;10.02;;;4.40;99.90;;;;;;5087576;28;20214;-78
2020/12/20 06:08:21;;;;;;;16.67;8.95;;;4.40;99.90;;;;;;5087051;28;20178;-79
2020/12/20 06:10:48;;;;;;;20.35;9.65;;;4.40;99.90;;;;;;5106683;28;20175;-79
2020/12/20 06:13:33;;;;;;;15.95;8.85;;;4.30;99.90;;;;;;5106694;28;20171;-79
2020/12/20 06:15:58;;;;;;;16.00;9.30;;;4.40;99.90;;;;;;5064179;28;20555;-78
2020/12/20 06:18:29;;;;;;;13.43;9.20;;;4.40;99.90;;;;;;5098390;28;20224;-78
2020/12/20 06:20:56;;;;;;;22.40;11.18;;;4.40;99.90;;;;;;5079996;28;20212;-78
2020/12/20 06:23:28;;;;;;;15.85;10.02;;;4.40;99.90;;;;;;5078718;28;20188;-78
2020/12/20 06:25:55;;;;;;;20.08;12.40;;;4.30;99.90;;;;;;5084944;28;20457;-82
2020/12/20 06:28:26;;;;;;;22.08;10.63;;;4.40;99.90;;;;;;5104593;28;20209;-80
2020/12/20 06:30:52;;;;;;;16.83;9.95;;;4.30;99.90;;;;;;5101158;28;20213;-79
2020/12/20 06:33:49;;;;;;;18.10;10.55;;;4.40;99.90;;;;;;5081779;28;20187;-78
2020/12/20 06:36:18;;;;;;;16.30;9.07;;;4.40;99.90;;;;;;5080895;28;20192;-82
2020/12/20 06:38:54;;;;;;;22.08;10.80;;;4.30;99.90;;;;;;5067609;28;20176;-80
2020/12/20 06:41:37;;;;;;;20.52;10.43;;;4.30;99.90;;;;;;5086636;28;20171;-79
2020/12/20 06:44:15;;;;;;;14.48;8.60;;;4.30;99.90;;;;;;5069206;28;20199;-79
2020/12/20 06:46:42;;;;;;;20.70;12.75;;;4.30;99.90;;;;;;5050678;28;20231;-80
2020/12/20 06:49:34;;;;;;;17.63;9.85;;;4.40;99.90;;;;;;5068544;28;20161;-79
2020/12/20 06:52:19;;;;;;;23.33;12.50;;;4.30;99.90;;;;;;5085101;28;20195;-79
2020/12/20 06:55:09;;;;;;;18.65;10.73;;;4.50;99.90;;;;;;5083369;28;20192;-78
2020/12/20 06:57:56;;;;;;;18.50;9.82;;;4.60;99.90;;;;;;5076806;28;20210;-78
2020/12/20 07:00:43;;;;;;;18.85;9.15;;;4.50;99.90;;;;;;5070184;28;20172;-79
2020/12/20 07:03:36;;;;;;;15.25;9.50;;;4.40;99.90;;;;;;5085987;28;20168;-78
2020/12/20 07:06:07;;;;;;;17.30;9.20;;;4.40;99.90;;;;;;5087819;28;20763;-78
2020/12/20 07:08:35;;;;;;;19.27;10.82;;;4.40;99.90;;;;;;5071268;28;20573;-78
2020/12/20 07:11:08;;;;;;;20.52;11.75;;;4.40;99.90;;;;;;5067210;28;20232;-77
2020/12/20 07:13:36;;;;;;;19.88;10.65;;;4.40;99.90;;;;;;5067572;28;20275;-79
2020/12/20 07:16:10;;;;;;;18.45;9.93;;;4.40;99.90;;;;;;5069742;28;20176;-80
2020/12/20 07:18:58;;;;;;;17.75;10.65;;;4.40;99.90;;;;;;5085588;28;20562;-80
2020/12/20 07:21:24;;;;;;;17.20;10.50;;;4.50;99.90;;;;;;5084575;28;20180;-79
2020/12/20 07:23:53;;;;;;;20.80;10.88;;;4.50;99.90;;;;;;5067910;28;20278;-79
2020/12/20 07:26:20;;;;;;;19.23;11.55;;;4.50;99.90;;;;;;5067197;28;20226;-80
2020/12/20 07:28:46;;;;;;;22.08;11.25;;;4.40;99.90;;;;;;5083874;28;20221;-81
2020/12/20 07:31:16;;;;;;;15.90;9.37;;;4.50;99.90;;;;;;5051580;28;20195;-79
2020/12/20 07:33:43;;;;;;;18.25;10.23;;;4.40;99.90;;;;;;5085428;28;20812;-79
2020/12/20 07:36:09;;;;;;;20.88;11.07;;;4.40;99.90;;;;;;5055139;28;20230;-80
2020/12/20 07:38:35;;;;;;;22.33;9.63;;;4.40;99.90;;;;;;5059140;28;20172;-79
2020/12/20 07:41:06;;;;;;;24.52;12.55;;;4.40;99.90;;;;;;5066920;28;20172;-79
2020/12/20 07:43:32;;;;;;;18.10;9.60;;;4.50;99.90;;;;;;5083838;28;20200;-79
2020/12/20 07:45:59;;;;;;;15.40;10.20;;;4.40;99.90;;;;;;5062332;28;20215;-78
2020/12/20 07:48:26;;;;;;;26.23;13.52;;;4.40;99.90;;;;;;5064962;28;20184;-79
2020/12/20 07:50:52;;;;;;;22.45;11.13;;;4.40;99.90;;;;;;5063760;28;20215;-79
2020/12/20 07:53:18;;;;;;;16.73;10.95;;;4.50;99.90;;;;;;5064133;28;20187;-79
2020/12/20 07:55:48;;;;;;;24.80;12.75;;;4.40;99.90;;;;;;5062395;28;20222;-80
2020/12/20 07:58:17;;;;;;;21.33;11.40;;;4.40;99.90;;;;;;5079572;28;20182;-82
2020/12/20 08:00:44;;;;;;;21.45;10.70;;;4.50;99.90;;;;;;5048750;28;20180;-81
2020/12/20 08:03:11;;;;;;;21.42;11.13;;;4.80;99.90;;;;;;5053277;28;20176;-81
2020/12/20 08:05:37;;;;;;;19.75;11.07;;;5.10;99.90;;;;;;5049709;28;20197;-80
2020/12/20 08:08:02;;;;;;;21.30;11.30;;;5.20;99.90;;;;;;5084001;28;20183;-80
2020/12/20 08:10:28;;;;;;;22.40;11.93;;;5.20;99.90;;;;;;5069495;28;20188;-80
2020/12/20 08:12:54;;;;;;;20.90;11.80;;;5.50;99.90;;;;;;5067817;28;20208;-80
2020/12/20 08:15:19;;;;;;;19.87;11.37;;;5.60;99.90;;;;;;5068745;28;20195;-80
2020/12/20 08:17:46;;;;;;;22.93;11.07;;;5.60;99.90;;;;;;5052579;28;20385;-79
2020/12/20 08:20:12;;;;;;;18.05;10.43;;;5.60;99.90;;;;;;5068488;28;20228;-80
2020/12/20 08:22:39;;;;;;;18.20;10.23;;;5.80;99.90;;;;;;5068089;28;20168;-79
2020/12/20 08:25:09;;;;;;;24.30;11.95;;;5.70;99.90;;;;;;5051248;28;20203;-82
2020/12/20 08:27:39;;;;;;;21.98;11.85;;;5.60;99.90;;;;;;5046755;28;20959;-79
2020/12/20 08:30:07;;;;;;;20.23;11.98;;;5.50;99.90;;;;;;5065045;28;20185;-82
2020/12/20 08:32:36;;;;;;;22.80;12.57;;;5.60;99.90;;;;;;5065495;28;20259;-79
2020/12/20 08:35:22;;;;;;;17.05;10.57;;;5.70;99.90;;;;;;5062346;28;20196;-79
2020/12/20 08:38:00;;;;;;;23.52;11.63;;;5.40;99.90;;;;;;5062971;28;20638;-78
2020/12/20 08:40:31;;;;;;;25.33;11.20;;;5.10;99.90;;;;;;5079792;28;20235;-80
2020/12/20 08:42:58;;;;;;;20.05;11.30;;;4.90;99.90;;;;;;5062483;28;20187;-79
2020/12/20 08:45:25;;;;;;;19.95;11.18;;;4.90;99.90;;;;;;5061097;28;20176;-79
2020/12/20 08:47:51;;;;;;;14.93;9.45;;;4.80;99.90;;;;;;5083279;28;20233;-79
2020/12/20 08:50:26;;;;;;;18.35;12.05;;;4.80;99.90;;;;;;5080904;28;20204;-78
2020/12/20 08:53:05;;;;;;;17.52;9.85;;;4.70;99.90;;;;;;5077771;28;20167;-80
2020/12/20 08:55:32;;;;;;;16.33;10.45;;;4.70;99.90;;;;;;5081214;28;20183;-80
2020/12/20 08:58:02;;;;;;;23.85;10.52;;;4.80;99.90;;;;;;5059276;28;20218;-78
2020/12/20 09:00:28;;;;;;;20.50;10.32;;;4.80;99.90;;;;;;5057131;28;20225;-78
2020/12/20 09:03:01;;;;;;;21.27;10.90;;;4.80;99.90;;;;;;5075412;28;20164;-79
2020/12/20 09:05:29;;;;;;;18.70;9.63;;;4.80;99.90;;;;;;5060481;28;20186;-78
2020/12/20 09:07:55;;;;;;;22.55;11.55;;;4.80;99.90;;;;;;5060038;28;20160;-79
2020/12/20 09:10:24;;;;;;;20.67;11.38;;;4.90;99.90;;;;;;5059519;28;20187;-80
2020/12/20 09:12:55;;;;;;;20.83;10.57;;;4.90;99.90;;;;;;5077518;28;20175;-79
2020/12/20 09:15:30;;;;;;;16.65;10.20;;;4.90;99.90;;;;;;5059902;28;20313;-78
2020/12/20 09:18:00;;;;;;;21.27;10.98;;;5.00;99.90;;;;;;5076091;28;20615;-78
2020/12/20 09:20:28;;;;;;;17.75;10.38;;;5.00;99.90;;;;;;5076585;28;20233;-79
2020/12/20 09:22:55;;;;;;;17.90;10.73;;;5.10;99.90;;;;;;5074607;28;20247;-78
2020/12/20 09:25:44;;;;;;;17.48;10.88;;;5.10;99.90;;;;;;5056875;28;20257;-78
2020/12/20 09:28:11;;;;;;;17.75;10.10;;;5.20;99.90;;;;;;5040139;28;20168;-78
2020/12/20 09:30:44;;;;;;;14.25;9.15;;;5.20;99.90;;;;;;5057975;28;20577;-78
2020/12/20 09:33:27;;;;;;;15.40;8.82;;;5.30;99.90;;;;;;5058395;28;20180;-78
2020/12/20 09:36:07;;;;;;;16.30;9.30;;;5.20;99.90;;;;;;5076012;28;20171;-78
2020/12/20 09:38:50;;;;;;;15.35;9.95;;;5.10;99.90;;;;;;5074830;28;20163;-78
2020/12/20 09:41:27;;;;;;;14.98;8.55;;;5.20;99.90;;;;;;5076273;28;20182;-78
2020/12/20 09:43:54;;;;;;;17.77;8.65;;;5.30;99.90;;;;;;5075237;28;20312;-78
2020/12/20 09:46:25;;;;;;;18.63;9.85;;;5.30;99.90;;;;;;5075480;28;20278;-78
2020/12/20 09:48:53;;;;;;;14.35;9.07;;;5.30;99.90;;;;;;5074384;28;20260;-78
2020/12/20 09:51:20;;;;;;;18.83;9.45;;;5.30;99.90;;;;;;5074043;28;20176;-79
2020/12/20 09:53:47;;;;;;;16.00;9.07;;;5.30;99.90;;;;;;5056379;28;20596;-78
2020/12/20 09:56:17;;;;;;;18.00;10.75;;;5.40;99.90;;;;;;5074632;28;20164;-78
2020/12/20 09:58:43;;;;;;;18.05;9.20;;;5.50;99.90;;;;;;5037802;28;20186;-77
2020/12/20 10:01:17;;;;;;;15.07;9.32;;;5.50;99.90;;;;;;5054191;28;20180;-79
2020/12/20 10:03:43;;;;;;;16.30;8.85;;;5.50;99.90;;;;;;5073156;28;20237;-77
2020/12/20 10:06:08;;;;;;;18.50;9.27;;;5.50;99.90;;;;;;5073681;28;20242;-78
2020/12/20 10:08:34;;;;;;;12.63;8.50;;;5.60;99.90;;;;;;5072987;28;20177;-78
2020/12/20 10:11:00;;;;;;;15.33;8.80;;;5.70;99.90;;;;;;5073172;28;20176;-77
2020/12/20 10:13:26;;;;;;;13.07;7.30;;;5.70;99.90;;;;;;5074083;28;20199;-78
2020/12/20 10:15:51;;;;;;;15.80;9.13;;;5.60;99.90;;;;;;5054785;28;20176;-80
2020/12/20 10:18:17;;;;;;;16.97;10.43;;;5.70;99.90;;;;;;5074539;28;20168;-78
2020/12/20 10:20:43;;;;;;;15.90;8.83;;;5.80;99.90;;;;;;5072969;28;20187;-76
2020/12/20 10:23:09;;;;;;;16.92;9.63;;;5.90;99.90;;;;;;5053485;28;20198;-77
2020/12/20 10:25:34;;;;;;;18.87;10.13;;;6.00;99.90;;;;;;5072846;28;20191;-78
2020/12/20 10:28:00;;;;;;;14.40;8.17;;;6.10;99.90;;;;;;5072934;28;20559;-77
2020/12/20 10:30:26;;;;;;;17.40;8.87;;;6.10;99.90;;;;;;5073345;28;20175;-77
2020/12/20 10:32:54;;;;;;;14.25;8.32;;;6.10;99.90;;;;;;5072674;28;20176;-77
2020/12/20 10:35:23;;;;;;;18.42;9.50;;;6.10;99.90;;;;;;5073992;28;20184;-78
2020/12/20 10:37:53;;;;;;;16.38;8.63;;;6.10;99.90;;;;;;5057825;28;20176;-78
2020/12/20 10:40:19;;;;;;;13.15;7.32;;;6.10;99.90;;;;;;5073651;28;20172;-79
2020/12/20 10:42:47;;;;;;;13.63;8.13;;;6.20;99.90;;;;;;5072064;28;20500;-76
2020/12/20 10:45:13;;;;;;;12.48;8.07;;;6.20;99.90;;;;;;5071852;28;20740;-76
2020/12/20 10:47:40;;;;;;;14.23;8.57;;;6.30;99.90;;;;;;5057117;28;20275;-77
2020/12/20 10:50:05;;;;;;;14.15;8.57;;;6.30;99.90;;;;;;5059222;28;20252;-79
2020/12/20 10:52:31;;;;;;;16.40;7.77;;;6.30;99.90;;;;;;5065333;28;20215;-79
2020/12/20 10:54:57;;;;;;;12.57;7.77;;;6.30;99.90;;;;;;5065710;28;20207;-79
2020/12/20 10:57:23;;;;;;;14.90;8.07;;;6.30;99.90;;;;;;5082210;28;20412;-77
2020/12/20 10:59:48;;;;;;;14.30;9.17;;;6.30;99.90;;;;;;5079073;28;20551;-78
2020/12/20 11:02:14;;;;;;;14.07;7.60;;;6.30;99.90;;;;;;5078601;28;20184;-77
2020/12/20 11:04:40;;;;;;;11.77;7.97;;;6.30;99.90;;;;;;5074186;28;20261;-77
2020/12/20 11:07:05;;;;;;;12.73;7.70;;;6.40;99.90;;;;;;5056571;28;20620;-75
2020/12/20 11:09:31;;;;;;;18.27;8.93;;;6.40;99.90;;;;;;5073425;28;20188;-78
2020/12/20 11:11:57;;;;;;;13.53;8.33;;;6.40;99.90;;;;;;5074065;28;20743;-76
2020/12/20 11:14:23;;;;;;;13.10;7.73;;;6.40;99.90;;;;;;5060533;28;20742;-78
2020/12/20 11:16:53;;;;;;;14.50;7.07;;;6.40;99.90;;;;;;5075765;28;20177;-76
2020/12/20 11:19:19;;;;;;;10.65;7.05;;;6.50;99.90;;;;;;5074777;28;20237;-78
2020/12/20 11:21:49;;;;;;;14.18;7.20;;;6.40;99.90;;;;;;5074535;28;20176;-77
2020/12/20 11:24:16;;;;;;;15.73;8.07;;;6.50;99.90;;;;;;5074623;28;20199;-77
2020/12/20 11:26:43;;;;;;;12.57;7.00;;;6.50;99.90;;;;;;5074349;28;20694;-77
2020/12/20 11:29:09;;;;;;;14.68;8.13;;;6.40;99.90;;;;;;5057126;28;20669;-78
2020/12/20 11:31:35;;;;;;;13.25;7.93;;;6.50;99.90;;;;;;5075139;28;20181;-77
2020/12/20 11:34:01;;;;;;;14.63;7.60;;;6.50;99.90;;;;;;5074920;28;20196;-78
2020/12/20 11:36:26;;;;;;;17.43;7.57;;;6.60;99.90;;;;;;5074942;28;20225;-77
2020/12/20 11:38:52;;;;;;;13.80;8.60;;;6.60;99.90;;;;;;5074650;28;20184;-76
2020/12/20 11:41:22;;;;;;;13.00;7.40;;;6.60;99.90;;;;;;5074285;28;20186;-76
2020/12/20 11:43:49;;;;;;;13.00;7.53;;;6.60;99.90;;;;;;5075284;28;20426;-78
2020/12/20 11:46:15;;;;;;;13.90;7.20;;;6.60;99.90;;;;;;5074622;28;20199;-76
2020/12/20 11:48:42;;;;;;;11.45;7.00;;;6.60;99.90;;;;;;5074960;28;20194;-77
2020/12/20 11:51:09;;;;;;;11.57;7.03;;;6.60;99.90;;;;;;5056306;28;20184;-77
2020/12/20 11:53:35;;;;;;;13.65;7.72;;;6.60;99.90;;;;;;5074752;28;20192;-78
2020/12/20 11:56:08;;;;;;;13.98;6.80;;;6.60;99.90;;;;;;5074070;28;20180;-77
2020/12/20 11:58:34;;;;;;;11.35;7.43;;;6.70;99.90;;;;;;5074298;28;20572;-77
2020/12/20 12:01:00;;;;;;;12.90;7.20;;;6.60;99.90;;;;;;5039627;28;20608;-77
2020/12/20 12:03:25;;;;;;;13.20;7.95;;;6.60;99.90;;;;;;5056081;28;20196;-76
2020/12/20 12:05:51;;;;;;;13.90;7.27;;;6.70;99.90;;;;;;5073474;28;20686;-77
2020/12/20 12:08:17;;;;;;;12.77;7.17;;;6.70;99.90;;;;;;5073413;28;20167;-77
2020/12/20 12:10:46;;;;;;;11.07;7.47;;;6.70;99.90;;;;;;5074005;28;20518;-78
2020/12/20 12:13:13;;;;;;;11.45;6.50;;;6.70;99.90;;;;;;5074052;28;20164;-78
2020/12/20 12:15:39;;;;;;;11.90;7.38;;;6.80;99.90;;;;;;5073462;28;20176;-77
2020/12/20 12:18:05;;;;;;;13.93;8.32;;;6.80;99.90;;;;;;5073287;28;20184;-77
2020/12/20 12:20:30;;;;;;;11.40;7.07;;;6.80;99.90;;;;;;5055297;28;20531;-77
2020/12/20 12:22:56;;;;;;;14.83;7.60;;;6.80;99.90;;;;;;5073630;28;20221;-77
2020/12/20 12:25:22;;;;;;;13.77;8.10;;;6.80;99.90;;;;;;5073015;28;20204;-77
2020/12/20 12:27:48;;;;;;;13.77;7.77;;;6.80;99.90;;;;;;5073326;28;20406;-77
2020/12/20 12:30:14;;;;;;;11.70;6.90;;;6.70;99.90;;;;;;5073543;28;20513;-77
2020/12/20 12:32:39;;;;;;;11.48;6.80;;;6.80;99.90;;;;;;5072787;28;20171;-77
2020/12/20 12:35:06;;;;;;;13.43;7.67;;;6.80;99.90;;;;;;5072786;28;20568;-77
2020/12/20 12:37:33;;;;;;;13.45;7.57;;;6.90;99.90;;;;;;5072910;28;20712;-77
2020/12/20 12:39:58;;;;;;;17.10;9.52;;;6.90;99.90;;;;;;5072986;28;20304;-78
2020/12/20 12:42:24;;;;;;;13.67;7.87;;;6.90;99.90;;;;;;5054767;28;20180;-77
2020/12/20 12:44:50;;;;;;;13.03;7.47;;;6.90;99.90;;;;;;5072912;28;20196;-77
2020/12/20 12:47:16;;;;;;;14.15;7.95;;;6.90;99.90;;;;;;5072851;28;20207;-77
2020/12/20 12:49:42;;;;;;;13.73;8.77;;;7.00;99.90;;;;;;5072622;28;20172;-77